Jerseyville, IL (62052)

1:29 PM CST on March 01, 2015 (GMT -0600)
APRSWXNET Carrolton IL US | Change Station
CLOSE
Current Station
Personal Weather Station
Location: Carrollton, IL
Elevation: 643 ft
Nearby Weather Stations
Active Advisory: Winter Storm Warning Active Notice: Local Storm Report

Elev 643 ft 39.30 °N, 90.41 °W | Updated 53 minutes ago

Snow
Snow
28 °F
Feels Like 28 °F
N
3
Wind Variable Wind from NW
Gusts 8.0 mph

Today
High -- | Low -- °F
--% Chance of Precip.
Yesterday
High -- | Low -- °F
Precip. -- in
6:34 AM 5:53 PM
Waxing Gibbous, 87% visible
Pressure 30.38 in
Visibility 10.0 miles
Clouds Mostly Cloudy 1600 ft
Overcast 2200 ft
Windchill 28 °F
Dew Point 24 °F
Humidity 86%
Rainfall 0.00 in
Snow Depth Not available.
UV 2 out of 12
Pollen .70 out of 12
Air Quality Not available.
Flu Activity Not available.
METAR KSET 011854Z AUTO 28005KT 10SM BKN016 OVC022 M01/M04 A3036 RMK AO2 SLP286 T10061044

More Conditions Fewer Conditions

Pressure 30.38 in
Visibility 10.0 miles
Clouds Mostly Cloudy 1600 ft
Overcast 2200 ft
Windchill 28 °F
Dew Point 24 °F
Humidity 86%
Rainfall 0.00 in
Snow Depth Not available.
UV 2 out of 12
Pollen .70 out of 12
Air Quality Not available.
Flu Activity Not available.
METAR KSET 011854Z AUTO 28005KT 10SM BKN016 OVC022 M01/M04 A3036 RMK AO2 SLP286 T10061044

More Conditions Fewer Conditions

10-Day Weather Forecast

Almanac

Astronomy

Mar. 01, 2015 Rise Set
Actual Time
Civil Twilight
Nautical Twilight
Astronomical Twilight
Moon
Length of Visible Light
Length of Day
Tomorrow will be .
, % of the Moon is Illuminated

Today's Extremes

State Highs State Lows

Community

WunderPhotos

Upload Photos

1,801,491 photos uploaded!

WunderBlogs® & News

Nearby

Air Quality

  Air Quality AQ Index Pollutant
Not available.

Snow Depth

Station Depth Elevation

Earthquake Activity

City Distance Mag. Time & Date
Minimum magnitude displayed is 2.5.

Coastal Water Temperatures

Place Temperature

Nearby Weather Stations

Winter Storm Warning
Statement as of 12:02 PM CST on March 01, 2015

... Winter Storm Warning remains in effect until 6 PM CST this
evening...

* timing... several bursts of snow and sleet are still possible
during the afternoon.

* Accumulations... additional snow and sleet accumulations should
be an inch or less.

* Winds... northwest 5 mph or less.

* Impacts... the wintry precipitation will result in hazardous
travel conditions... especially on bridges... overpasses... and
untreated roads. Parking lots and sidewalks will become
slippery as well.

Precautionary/preparedness actions...

A Winter Storm Warning means that 6 inches or more of snow is
expected. The accumulation of snow will make travel extremely
difficult... if not impossible. If travel is necessary... make
sure to exercise caution. Begin your travel with a tank full of
gas... and carry a winter storm kit which includes a shovel...
flashlight... cellphone... and blankets of extra warm clothing.